createdAt,value
2023-11-18T00:00:29.340Z,97119.38
2023-11-18T00:03:00.233Z,97112.30
2023-11-18T00:05:31.174Z,97115.07
2023-11-18T00:08:02.158Z,97118.30
2023-11-18T00:10:32.970Z,97123.36
2023-11-18T00:13:05.200Z,97123.12
2023-11-18T00:15:37.179Z,97124.17
2023-11-18T00:18:08.215Z,97123.75
2023-11-18T00:20:38.973Z,97128.27
2023-11-18T00:23:09.789Z,97132.14
2023-11-18T00:25:41.515Z,97135.70
2023-11-18T00:28:12.928Z,97141.75
2023-11-18T00:30:43.662Z,97139.73
2023-11-18T00:33:14.530Z,97136.20
2023-11-18T00:35:46.662Z,97132.92
2023-11-18T00:38:18.914Z,97138.27
2023-11-18T00:40:49.697Z,97140.93
2023-11-18T00:43:20.467Z,97146.02
2023-11-18T00:45:52.480Z,97146.54
2023-11-18T00:48:23.291Z,97151.55
2023-11-18T00:50:54.132Z,97144.73
2023-11-18T00:53:25.627Z,97144.48
2023-11-18T00:55:56.410Z,97146.94
2023-11-18T00:58:27.179Z,97144.58
2023-11-18T01:00:58.008Z,97142.81
2023-11-18T01:03:29.217Z,97142.14
2023-11-18T01:06:00.507Z,97141.64
2023-11-18T01:08:31.295Z,97137.77
2023-11-18T01:11:02.082Z,97136.98
2023-11-18T01:13:33.360Z,97136.09
2023-11-18T01:16:05.694Z,97139.01
2023-11-18T01:18:36.736Z,97140.96
2023-11-18T01:21:10.095Z,97144.02
2023-11-18T01:23:43.831Z,97146.35
2023-11-18T01:26:14.642Z,97154.26
2023-11-18T01:28:46.477Z,97153.73
2023-11-18T01:31:18.672Z,97156.78
2023-11-18T01:33:51.324Z,97157.38
2023-11-18T01:36:22.060Z,97161.06
2023-11-18T01:38:52.806Z,97159.48
2023-11-18T01:41:23.594Z,97163.53
2023-11-18T01:43:55.152Z,97170.42
2023-11-18T01:46:31.122Z,97174.11
2023-11-18T01:49:02.104Z,97166.04
2023-11-18T01:51:33.308Z,97169.72
2023-11-18T01:54:05.248Z,97171.99
2023-11-18T01:56:36.099Z,97174.17
2023-11-18T01:59:10.388Z,97175.73
2023-11-18T02:01:44.514Z,97178.10
2023-11-18T02:04:15.492Z,97183.42
2023-11-18T02:06:49.061Z,97183.13
2023-11-18T02:09:20.754Z,97187.04
2023-11-18T02:12:07.898Z,97194.73
2023-11-18T02:14:41.611Z,97200.90
2023-11-18T02:17:16.628Z,97202.44
2023-11-18T02:19:47.907Z,97212.23
2023-11-18T02:22:19.315Z,97209.37
2023-11-18T02:24:51.287Z,97211.86
2023-11-18T02:27:23.509Z,97219.63
2023-11-18T02:29:54.536Z,97221.54
2023-11-18T02:32:31.973Z,97225.56
2023-11-18T02:35:12.049Z,97221.69
2023-11-18T02:37:48.890Z,97220.40
2023-11-18T02:40:25.801Z,97216.45
2023-11-18T02:42:58.433Z,97219.56
2023-11-18T02:45:33.140Z,97216.67
2023-11-18T02:48:04.074Z,97223.87
2023-11-18T02:50:36.610Z,97228.34
2023-11-18T02:53:07.607Z,97223.52
2023-11-18T02:55:38.351Z,97227.25
2023-11-18T02:58:09.192Z,97226.13
2023-11-18T03:00:39.895Z,97228.36
2023-11-18T03:03:10.659Z,97233.61
2023-11-18T03:05:41.555Z,97236.39
2023-11-18T03:08:12.739Z,97242.61
2023-11-18T03:10:45.629Z,97250.21
2023-11-18T03:13:16.455Z,97252.61
2023-11-18T03:15:49.360Z,97246.70
2023-11-18T03:18:20.262Z,97254.41
2023-11-18T03:20:51.386Z,97253.29
2023-11-18T03:23:22.512Z,97253.45
2023-11-18T03:25:53.791Z,97253.45
2023-11-18T03:28:24.598Z,97267.46
2023-11-18T03:30:55.768Z,97259.94
2023-11-18T03:33:26.539Z,97259.06
2023-11-18T03:35:57.459Z,97259.23
2023-11-18T03:38:29.849Z,97264.52
2023-11-18T03:41:00.677Z,97256.21
2023-11-18T03:43:31.507Z,97259.73
2023-11-18T03:46:02.280Z,97262.38
2023-11-18T03:48:33.010Z,97265.11
2023-11-18T03:51:04.869Z,97268.69
2023-11-18T03:53:36.131Z,97265.06
2023-11-18T03:56:07.795Z,97266.67
2023-11-18T03:58:38.592Z,97275.42
2023-11-18T04:01:12.339Z,97266.05
2023-11-18T04:03:43.183Z,97263.50
2023-11-18T04:06:15.126Z,97265.24
2023-11-18T04:08:48.176Z,97256.13
2023-11-18T04:11:19.362Z,97256.98
2023-11-18T04:13:50.212Z,97250.63
2023-11-18T04:16:21.259Z,97248.34
2023-11-18T04:18:52.108Z,97250.73
2023-11-18T04:21:22.875Z,97253.94
2023-11-18T04:23:53.584Z,97250.66
2023-11-18T04:26:25.706Z,97252.45
2023-11-18T04:28:56.499Z,97263.48
2023-11-18T04:31:27.398Z,97265.67
2023-11-18T04:33:58.145Z,97258.70
2023-11-18T04:36:30.193Z,97262.80
2023-11-18T04:39:01.003Z,97270.64
2023-11-18T04:41:32.761Z,97275.96
2023-11-18T04:44:03.680Z,97272.86
2023-11-18T04:46:35.454Z,97260.41
2023-11-18T04:49:06.708Z,97263.64
2023-11-18T04:51:37.764Z,97269.12
2023-11-18T04:54:09.463Z,97276.39
2023-11-18T04:56:40.329Z,97277.54
2023-11-18T04:59:11.035Z,97275.50
2023-11-18T05:01:42.017Z,97279.73
2023-11-18T05:04:12.804Z,97284.50
2023-11-18T05:06:43.671Z,97285.28
2023-11-18T05:09:14.356Z,97283.78
2023-11-18T05:11:45.871Z,97280.81
2023-11-18T05:14:18.156Z,97279.35
2023-11-18T05:16:48.969Z,97282.11
2023-11-18T05:19:19.745Z,97279.80
2023-11-18T05:21:51.437Z,97287.13
2023-11-18T05:24:22.218Z,97291.68
2023-11-18T05:26:53.752Z,97293.60
2023-11-18T05:29:25.066Z,97294.67
2023-11-18T05:31:56.956Z,97292.91
2023-11-18T05:34:27.790Z,97296.77
2023-11-18T05:37:00.531Z,97307.30
2023-11-18T05:39:32.192Z,97306.59
2023-11-18T05:42:03.084Z,97312.77
2023-11-18T05:44:38.729Z,97315.53
2023-11-18T05:47:09.833Z,97311.23
2023-11-18T05:49:40.707Z,97317.48
2023-11-18T05:52:13.057Z,97320.42
2023-11-18T05:54:43.838Z,97323.68
2023-11-18T05:57:14.577Z,97330.48
2023-11-18T05:59:45.317Z,97334.48
2023-11-18T06:02:19.415Z,97342.54
2023-11-18T06:04:50.812Z,97344.27
2023-11-18T06:07:21.625Z,97348.92
2023-11-18T06:09:53.351Z,97349.05
2023-11-18T06:12:24.109Z,97351.47
2023-11-18T06:14:54.808Z,97356.70
2023-11-18T06:17:24.785Z,97360.41
2023-11-18T06:19:55.626Z,97364.08
2023-11-18T06:22:26.733Z,97369.77
2023-11-18T06:24:57.523Z,97375.62
2023-11-18T06:27:28.442Z,97373.55
2023-11-18T06:29:59.136Z,97381.10
2023-11-18T06:32:32.258Z,97377.58
2023-11-18T06:35:03.617Z,97372.73
2023-11-18T06:37:37.508Z,97370.92
2023-11-18T06:40:17.676Z,97370.95
2023-11-18T06:42:48.732Z,97376.34
2023-11-18T06:45:19.502Z,97387.48
2023-11-18T06:47:50.394Z,97386.81
2023-11-18T06:50:25.624Z,97380.77
2023-11-18T06:52:56.936Z,97389.64
2023-11-18T06:55:28.344Z,97392.23
2023-11-18T06:57:59.041Z,97393.64
2023-11-18T07:00:30.066Z,97404.88
2023-11-18T07:03:02.556Z,97402.48
2023-11-18T07:05:33.580Z,97413.14
2023-11-18T07:08:04.425Z,97417.55
2023-11-18T07:10:36.210Z,97415.17
2023-11-18T07:13:08.360Z,97418.16
2023-11-18T07:15:39.050Z,97416.73
2023-11-18T07:18:10.167Z,97420.95
2023-11-18T07:20:40.902Z,97418.79
2023-11-18T07:23:11.671Z,97418.04
2023-11-18T07:25:44.681Z,97429.95
2023-11-18T07:28:18.127Z,97432.88
2023-11-18T07:30:49.400Z,97439.77
2023-11-18T07:33:20.764Z,97423.96
2023-11-18T07:35:51.991Z,97419.84
2023-11-18T07:38:22.832Z,97427.71
2023-11-18T07:40:57.555Z,97419.45
2023-11-18T07:43:29.953Z,97421.52
2023-11-18T07:46:00.720Z,97421.14
2023-11-18T07:48:32.448Z,97420.73
2023-11-18T07:51:03.150Z,97418.10
2023-11-18T07:53:33.831Z,97415.61
2023-11-18T07:56:04.734Z,97417.13
2023-11-18T07:58:38.459Z,97420.66
2023-11-18T08:01:10.101Z,97417.20
2023-11-18T08:03:42.627Z,97415.55
2023-11-18T08:06:14.148Z,97415.30
2023-11-18T08:08:44.828Z,97412.94
2023-11-18T08:11:15.832Z,97413.55
2023-11-18T08:13:47.146Z,97410.13
2023-11-18T08:16:17.956Z,97424.04
2023-11-18T08:18:48.706Z,97404.84
2023-11-18T08:21:19.365Z,97416.63
2023-11-18T08:23:51.434Z,97408.38
2023-11-18T08:26:23.289Z,97404.66
2023-11-18T08:28:54.212Z,97398.89
2023-11-18T08:31:25.000Z,97399.15
2023-11-18T08:33:56.386Z,97398.64
2023-11-18T08:36:28.282Z,97392.66
2023-11-18T08:38:59.017Z,97392.06
2023-11-18T08:41:32.322Z,97402.14
2023-11-18T08:44:14.149Z,97399.85
2023-11-18T08:46:53.372Z,97397.05
2023-11-18T08:49:24.189Z,97408.85
2023-11-18T08:51:57.856Z,97402.35
2023-11-18T08:54:37.744Z,97404.38
2023-11-18T08:57:24.820Z,97402.91
2023-11-18T08:59:59.985Z,97406.14
2023-11-18T09:02:34.696Z,97421.88
2023-11-18T09:05:14.031Z,97418.66
2023-11-18T09:07:49.493Z,97419.00
2023-11-18T09:10:21.941Z,97421.67
2023-11-18T09:12:55.914Z,97415.58
2023-11-18T09:15:27.699Z,97417.45
2023-11-18T09:17:59.176Z,97416.20
2023-11-18T09:20:30.378Z,97421.80
2023-11-18T09:23:01.168Z,97424.07
2023-11-18T09:25:33.914Z,97427.02
2023-11-18T09:28:05.184Z,97422.95
2023-11-18T09:30:39.896Z,97432.66
2023-11-18T09:33:15.296Z,97425.02
2023-11-18T09:35:46.623Z,97428.77
2023-11-18T09:38:17.746Z,97434.68
2023-11-18T09:40:49.572Z,97428.78
2023-11-18T09:43:23.074Z,97439.76
2023-11-18T09:45:58.992Z,97438.14
2023-11-18T09:48:30.151Z,97442.39
2023-11-18T09:51:03.803Z,97439.63
2023-11-18T09:53:41.287Z,97441.31
2023-11-18T09:56:27.573Z,97440.58
2023-11-18T09:59:08.038Z,97448.48
2023-11-18T10:01:45.312Z,97444.30
2023-11-18T10:04:19.598Z,97454.46
2023-11-18T10:06:54.786Z,97444.16
2023-11-18T10:09:38.200Z,97439.77
2023-11-18T10:12:13.811Z,97448.55
2023-11-18T10:14:45.904Z,97446.59
2023-11-18T10:17:19.157Z,97447.61
2023-11-18T10:20:01.235Z,97462.40
2023-11-18T10:22:33.712Z,97453.64
2023-11-18T10:25:07.169Z,97433.05
2023-11-18T10:27:39.909Z,97428.92
2023-11-18T10:30:20.414Z,97433.45
2023-11-18T10:33:06.982Z,97431.86
2023-11-18T10:35:38.536Z,97432.77
2023-11-18T10:38:10.073Z,97432.11
2023-11-18T10:40:40.823Z,97429.51
2023-11-18T10:43:11.756Z,97429.13
2023-11-18T10:45:45.775Z,97417.31
2023-11-18T10:48:17.783Z,97409.48
2023-11-18T10:50:52.066Z,97409.09
2023-11-18T10:53:24.158Z,97403.23
2023-11-18T10:55:55.689Z,97402.19
2023-11-18T10:58:27.573Z,97401.87
2023-11-18T11:01:01.587Z,97402.00
2023-11-18T11:03:37.170Z,97402.36
2023-11-18T11:06:20.769Z,97410.30
2023-11-18T11:08:51.699Z,97414.63
2023-11-18T11:11:24.596Z,97418.87
2023-11-18T11:13:58.760Z,97419.73
2023-11-18T11:16:42.695Z,97419.02
2023-11-18T11:19:23.713Z,97423.10
2023-11-18T11:22:03.463Z,97415.83
2023-11-18T11:24:48.014Z,97419.30
2023-11-18T11:27:37.066Z,97421.95
2023-11-18T11:30:16.305Z,97421.85
2023-11-18T11:32:53.189Z,97426.89
2023-11-18T11:35:34.195Z,97436.55
2023-11-18T11:38:11.228Z,97444.80
2023-11-18T11:40:44.108Z,97423.27
2023-11-18T11:43:22.401Z,97441.35
2023-11-18T11:45:56.720Z,97438.04
2023-11-18T11:48:29.335Z,97432.12
2023-11-18T11:51:15.394Z,97434.06
2023-11-18T11:53:53.636Z,97431.05
2023-11-18T11:56:39.822Z,97432.67
2023-11-18T11:59:12.546Z,97430.37
2023-11-18T12:01:48.403Z,97434.30
2023-11-18T12:04:24.303Z,97440.77
2023-11-18T12:07:05.874Z,97433.54
2023-11-18T12:09:45.238Z,97440.50
2023-11-18T12:12:27.559Z,97450.48
2023-11-18T12:15:07.172Z,97454.48
2023-11-18T12:18:18.657Z,97465.05
2023-11-18T12:20:55.031Z,97453.04
2023-11-18T12:23:27.240Z,97460.99
2023-11-18T12:25:59.743Z,97457.69
2023-11-18T12:28:36.490Z,97459.94
2023-11-18T12:31:16.384Z,97461.48
2023-11-18T12:34:10.075Z,97463.80
2023-11-18T12:37:20.761Z,97468.51
2023-11-18T12:40:21.491Z,97464.88
2023-11-18T12:43:08.846Z,97460.30
2023-11-18T12:46:15.875Z,97461.75
2023-11-18T12:48:52.746Z,97456.38
2023-11-18T12:51:24.837Z,97459.83
2023-11-18T12:53:55.563Z,97456.52
2023-11-18T12:56:29.838Z,97462.64
2023-11-18T12:59:00.718Z,97467.08
2023-11-18T13:01:35.026Z,97458.79
2023-11-18T13:04:06.240Z,97464.22
2023-11-18T13:06:37.038Z,97469.52
2023-11-18T13:09:10.941Z,97474.91
2023-11-18T13:11:43.870Z,97485.43
2023-11-18T13:14:14.704Z,97485.70
2023-11-18T13:16:47.158Z,97487.11
2023-11-18T13:19:27.394Z,97485.16
2023-11-18T13:22:01.700Z,97491.58
2023-11-18T13:24:32.704Z,97487.02
2023-11-18T13:27:05.727Z,97487.89
2023-11-18T13:29:37.218Z,97494.95
2023-11-18T13:32:10.814Z,97491.92
2023-11-18T13:34:43.594Z,97494.81
2023-11-18T13:37:18.152Z,97496.20
2023-11-18T13:39:55.627Z,97495.19
2023-11-18T13:42:29.316Z,97483.58
2023-11-18T13:45:09.380Z,97482.23
2023-11-18T13:47:41.256Z,97483.63
2023-11-18T13:50:15.177Z,97484.35
2023-11-18T13:52:45.953Z,97483.14
2023-11-18T13:55:26.719Z,97488.59
2023-11-18T13:57:59.260Z,97486.92
2023-11-18T14:00:32.552Z,97487.30
2023-11-18T14:03:05.714Z,97483.38
2023-11-18T14:05:38.908Z,97476.63
2023-11-18T14:08:11.589Z,97474.16
2023-11-18T14:10:42.938Z,97480.14
2023-11-18T14:13:18.711Z,97475.86
2023-11-18T14:15:50.370Z,97482.61
2023-11-18T14:18:21.151Z,97482.06
2023-11-18T14:20:52.001Z,97491.20
2023-11-18T14:23:23.283Z,97481.05
2023-11-18T14:25:54.118Z,97483.19
2023-11-18T14:28:27.601Z,97482.67
2023-11-18T14:30:59.096Z,97479.92
2023-11-18T14:33:30.110Z,97490.65
2023-11-18T14:36:01.998Z,97501.34
2023-11-18T14:38:35.485Z,97508.35
2023-11-18T14:41:08.413Z,97516.50
2023-11-18T14:43:39.291Z,97515.24
2023-11-18T14:46:10.601Z,97527.05
2023-11-18T14:48:41.338Z,97530.33
2023-11-18T14:51:12.342Z,97537.10
2023-11-18T14:53:44.417Z,97537.91
2023-11-18T14:56:15.971Z,97536.34
2023-11-18T14:58:50.449Z,97533.89
2023-11-18T15:01:21.360Z,97531.88
2023-11-18T15:03:52.350Z,97535.07
2023-11-18T15:06:30.084Z,97532.52
2023-11-18T15:09:00.804Z,97538.85
2023-11-18T15:11:32.738Z,97542.23
2023-11-18T15:14:04.383Z,97550.54
2023-11-18T15:16:35.301Z,97554.73
2023-11-18T15:19:07.157Z,97556.34
2023-11-18T15:21:37.938Z,97556.46
2023-11-18T15:24:10.113Z,97547.27
2023-11-18T15:26:40.909Z,97540.78
2023-11-18T15:29:16.098Z,97546.72
2023-11-18T15:31:47.251Z,97554.97
2023-11-18T15:34:18.029Z,97556.39
2023-11-18T15:36:49.005Z,97557.86
2023-11-18T15:39:20.097Z,97559.45
2023-11-18T15:41:50.953Z,97563.89
2023-11-18T15:44:21.868Z,97558.37
2023-11-18T15:46:54.207Z,97556.98
2023-11-18T15:49:26.060Z,97559.58
2023-11-18T15:51:56.732Z,97559.31
2023-11-18T15:54:27.478Z,97564.34
2023-11-18T15:56:59.978Z,97566.63
2023-11-18T15:59:31.968Z,97564.36
2023-11-18T16:02:05.151Z,97561.68
2023-11-18T16:04:35.966Z,97553.86
2023-11-18T16:07:07.749Z,97556.03
2023-11-18T16:09:38.645Z,97562.20
2023-11-18T16:12:10.485Z,97571.20
2023-11-18T16:14:41.316Z,97579.98
2023-11-18T16:17:12.750Z,97583.73
2023-11-18T16:19:43.951Z,97589.38
2023-11-18T16:22:14.927Z,97598.14
2023-11-18T16:24:45.721Z,97603.47
2023-11-18T16:27:17.017Z,97602.59
2023-11-18T16:29:47.734Z,97604.83
2023-11-18T16:32:18.569Z,97608.15
2023-11-18T16:34:49.481Z,97608.20
2023-11-18T16:37:21.900Z,97607.98
2023-11-18T16:39:53.387Z,97608.48
2023-11-18T16:42:28.255Z,97599.48
2023-11-18T16:45:00.847Z,97598.77
2023-11-18T16:47:31.607Z,97594.73
2023-11-18T16:50:04.475Z,97592.06
2023-11-18T16:52:36.028Z,97589.60
2023-11-18T16:55:07.707Z,97587.54
2023-11-18T16:57:38.564Z,97583.89
2023-11-18T17:00:17.818Z,97593.26
2023-11-18T17:02:52.055Z,97591.73
2023-11-18T17:05:23.194Z,97598.13
2023-11-18T17:07:55.529Z,97594.10
2023-11-18T17:10:26.795Z,97587.43
2023-11-18T17:12:59.166Z,97589.23
2023-11-18T17:15:30.308Z,97582.70
2023-11-18T17:18:04.073Z,97584.42
2023-11-18T17:20:35.674Z,97574.95
2023-11-18T17:23:06.494Z,97573.70
2023-11-18T17:25:38.008Z,97571.27
2023-11-18T17:28:09.253Z,97565.10
2023-11-18T17:30:40.080Z,97565.21
2023-11-18T17:33:12.807Z,97566.63
2023-11-18T17:35:44.325Z,97569.91
2023-11-18T17:38:15.492Z,97570.77
2023-11-18T17:40:47.360Z,97562.94
2023-11-18T17:43:18.064Z,97561.22
2023-11-18T17:45:50.065Z,97559.75
2023-11-18T17:48:21.074Z,97561.75
2023-11-18T17:50:54.048Z,97570.31
2023-11-18T17:53:25.272Z,97574.61
2023-11-18T17:55:56.019Z,97583.35
2023-11-18T17:58:27.101Z,97588.55
2023-11-18T18:00:59.249Z,97603.13
2023-11-18T18:03:30.137Z,97607.48
2023-11-18T18:06:01.551Z,97608.38
2023-11-18T18:08:35.571Z,97612.98
2023-11-18T18:11:09.450Z,97610.77
2023-11-18T18:13:41.056Z,97611.95
2023-11-18T18:16:14.379Z,97610.06
2023-11-18T18:18:45.288Z,97603.40
2023-11-18T18:21:16.049Z,97603.00
2023-11-18T18:23:46.876Z,97603.66
2023-11-18T18:26:17.654Z,97614.02
2023-11-18T18:28:48.662Z,97612.52
2023-11-18T18:31:19.542Z,97608.12
2023-11-18T18:33:52.248Z,97603.28
2023-11-18T18:36:23.031Z,97599.56
2023-11-18T18:38:53.747Z,97605.70
2023-11-18T18:41:24.492Z,97613.19
2023-11-18T18:43:55.247Z,97613.06
2023-11-18T18:46:26.457Z,97607.13
2023-11-18T18:48:57.146Z,97608.59
2023-11-18T18:51:27.871Z,97610.55
2023-11-18T18:53:58.561Z,97618.09
2023-11-18T18:56:30.180Z,97621.08
2023-11-18T18:59:00.988Z,97615.58
2023-11-18T19:01:32.311Z,97617.34
2023-11-18T19:04:03.183Z,97627.88
2023-11-18T19:06:34.262Z,97633.93
2023-11-18T19:09:05.405Z,97637.79
2023-11-18T19:11:36.229Z,97640.31
2023-11-18T19:14:08.530Z,97634.00
2023-11-18T19:16:42.788Z,97630.11
2023-11-18T19:19:18.410Z,97626.09
2023-11-18T19:21:52.007Z,97621.46
2023-11-18T19:24:22.935Z,97623.58
2023-11-18T19:26:54.235Z,97618.98
2023-11-18T19:29:25.157Z,97616.52
2023-11-18T19:31:55.989Z,97615.63
2023-11-18T19:34:26.674Z,97608.60
2023-11-18T19:36:57.382Z,97600.60
2023-11-18T19:39:28.445Z,97597.02
2023-11-18T19:41:59.805Z,97595.73
2023-11-18T19:44:32.165Z,97603.27
2023-11-18T19:47:02.934Z,97603.65
2023-11-18T19:49:35.017Z,97601.24
2023-11-18T19:52:08.184Z,97605.17
2023-11-18T19:54:40.430Z,97603.58
2023-11-18T19:57:12.303Z,97607.92
2023-11-18T19:59:43.119Z,97606.96
2023-11-18T20:02:14.518Z,97602.67
2023-11-18T20:04:47.344Z,97605.88
2023-11-18T20:07:19.469Z,97615.50
2023-11-18T20:09:50.184Z,97632.80
2023-11-18T20:12:24.261Z,97630.06
2023-11-18T20:14:55.248Z,97626.30
2023-11-18T20:17:26.132Z,97625.20
2023-11-18T20:19:58.074Z,97630.80
2023-11-18T20:22:28.766Z,97633.59
2023-11-18T20:25:00.939Z,97629.58
2023-11-18T20:27:31.631Z,97632.33
2023-11-18T20:30:03.081Z,97628.86
2023-11-18T20:32:34.836Z,97634.46
2023-11-18T20:35:06.995Z,97634.27
2023-11-18T20:37:37.733Z,97626.80
2023-11-18T20:40:12.274Z,97625.64
2023-11-18T20:42:45.933Z,97625.17
2023-11-18T20:45:18.961Z,97625.36
2023-11-18T20:47:50.648Z,97627.49
2023-11-18T20:50:21.558Z,97627.23
2023-11-18T20:52:52.363Z,97626.70
2023-11-18T20:57:57.268Z,97627.73
2023-11-18T21:00:26.963Z,97615.20
2023-11-18T21:02:57.736Z,97620.27
2023-11-18T21:05:30.416Z,97619.31
2023-11-18T21:08:02.045Z,97614.77
2023-11-18T21:10:34.485Z,97609.44
2023-11-18T21:13:08.571Z,97604.56
2023-11-18T21:15:40.398Z,97604.13
2023-11-18T21:18:13.582Z,97600.80
2023-11-18T21:20:46.020Z,97593.88
2023-11-18T21:23:17.054Z,97592.98
2023-11-18T21:25:47.869Z,97592.11
2023-11-18T21:28:22.018Z,97577.92
2023-11-18T21:30:52.730Z,97565.00
2023-11-18T21:33:24.350Z,97558.19
2023-11-18T21:35:55.737Z,97557.90
2023-11-18T21:38:26.454Z,97558.44
2023-11-18T21:40:57.243Z,97568.58
2023-11-18T21:43:28.143Z,97565.30
2023-11-18T21:45:59.379Z,97561.49
2023-11-18T21:48:31.613Z,97559.20
2023-11-18T21:51:02.340Z,97552.20
2023-11-18T21:53:33.048Z,97552.26
2023-11-18T21:56:04.349Z,97546.16
2023-11-18T21:58:35.030Z,97548.43
2023-11-18T22:01:06.705Z,97547.21
2023-11-18T22:03:37.524Z,97545.71
2023-11-18T22:06:09.158Z,97543.30
2023-11-18T22:08:41.564Z,97540.23
2023-11-18T22:11:12.305Z,97534.95
2023-11-18T22:13:43.038Z,97529.95
2023-11-18T22:16:13.824Z,97528.96
2023-11-18T22:18:44.915Z,97523.84
2023-11-18T22:21:16.775Z,97528.79
2023-11-18T22:23:47.460Z,97534.67
2023-11-18T22:26:18.370Z,97535.48
2023-11-18T22:28:49.076Z,97540.50
2023-11-18T22:31:22.540Z,97537.27
2023-11-18T22:33:53.212Z,97535.94
2023-11-18T22:36:23.907Z,97531.94
2023-11-18T22:38:54.551Z,97521.31
2023-11-18T22:41:25.291Z,97517.23
2023-11-18T22:43:55.940Z,97511.91
2023-11-18T22:46:26.705Z,97505.61
2023-11-18T22:48:57.392Z,97502.81
2023-11-18T22:51:28.678Z,97503.71
2023-11-18T22:53:59.771Z,97507.81
2023-11-18T22:56:30.506Z,97512.85
2023-11-18T22:59:02.353Z,97513.37
2023-11-18T23:01:33.117Z,97514.64
2023-11-18T23:04:12.715Z,97514.48
2023-11-18T23:06:43.763Z,97514.27
2023-11-18T23:09:14.445Z,97512.92
2023-11-18T23:11:47.399Z,97508.48
2023-11-18T23:14:18.856Z,97502.05
2023-11-18T23:16:51.848Z,97495.95
2023-11-18T23:19:22.685Z,97493.17
2023-11-18T23:21:53.406Z,97481.69
2023-11-18T23:24:24.115Z,97480.05
2023-11-18T23:26:56.833Z,97474.64
2023-11-18T23:29:27.666Z,97476.20
2023-11-18T23:31:58.640Z,97473.90
2023-11-18T23:34:29.505Z,97467.27
2023-11-18T23:37:00.288Z,97459.22
2023-11-18T23:39:32.002Z,97458.39
2023-11-18T23:42:03.428Z,97454.84
2023-11-18T23:44:35.098Z,97448.90
2023-11-18T23:47:06.755Z,97451.63
2023-11-18T23:49:37.576Z,97454.36
2023-11-18T23:52:08.848Z,97458.48
2023-11-18T23:54:40.778Z,97460.01
2023-11-18T23:57:12.709Z,97460.70
2023-11-18T23:59:44.692Z,97462.63
